createdAt,value
2018-12-13T00:01:44.976Z,11.07
2018-12-13T00:04:11.960Z,9.10
2018-12-13T00:06:38.190Z,7.93
2018-12-13T00:09:04.453Z,9.17
2018-12-13T00:11:31.505Z,7.20
2018-12-13T00:13:58.464Z,8.20
2018-12-13T00:16:24.762Z,8.27
2018-12-13T00:18:51.016Z,6.93
2018-12-13T00:21:17.267Z,7.83
2018-12-13T00:23:43.523Z,7.87
2018-12-13T00:26:10.016Z,8.87
2018-12-13T00:28:36.259Z,9.30
2018-12-13T00:31:02.579Z,7.77
2018-12-13T00:33:28.812Z,7.23
2018-12-13T00:35:55.048Z,8.27
2018-12-13T00:38:21.322Z,8.27
2018-12-13T00:40:47.555Z,6.93
2018-12-13T00:43:13.805Z,7.30
2018-12-13T00:45:40.096Z,8.13
2018-12-13T00:48:06.333Z,8.87
2018-12-13T00:50:33.336Z,7.13
2018-12-13T00:52:59.591Z,7.03
2018-12-13T00:55:25.849Z,9.80
2018-12-13T00:57:52.804Z,7.00
2018-12-13T01:00:19.823Z,7.00
2018-12-13T01:02:46.067Z,7.00
2018-12-13T01:05:13.436Z,8.00
2018-12-13T01:07:39.695Z,6.47
2018-12-13T01:10:05.947Z,7.93
2018-12-13T01:12:32.515Z,6.17
2018-12-13T01:14:59.504Z,9.40
2018-12-13T01:17:25.825Z,6.93
2018-12-13T01:19:52.895Z,7.23
2018-12-13T01:22:19.128Z,7.87
2018-12-13T01:24:45.383Z,7.93
2018-12-13T01:27:11.611Z,8.40
2018-12-13T01:29:37.831Z,8.17
2018-12-13T01:32:04.186Z,8.37
2018-12-13T01:34:30.428Z,7.43
2018-12-13T01:36:56.672Z,8.57
2018-12-13T01:39:22.937Z,10.20
2018-12-13T01:41:49.213Z,9.40
2018-12-13T01:44:15.456Z,7.43
2018-12-13T01:46:41.744Z,8.43
2018-12-13T01:49:08.736Z,9.53
2018-12-13T01:51:34.984Z,8.93
2018-12-13T01:54:01.231Z,10.30
2018-12-13T01:56:27.489Z,7.53
2018-12-13T01:58:53.735Z,8.13
2018-12-13T02:01:19.988Z,9.20
2018-12-13T02:03:46.265Z,9.17
2018-12-13T02:06:12.494Z,8.47
2018-12-13T02:08:38.732Z,8.70
2018-12-13T02:11:05.628Z,8.57
2018-12-13T02:13:31.857Z,8.60
2018-12-13T02:15:58.155Z,8.77
2018-12-13T02:18:24.416Z,8.40
2018-12-13T02:20:50.652Z,10.17
2018-12-13T02:23:16.893Z,7.90
2018-12-13T02:25:43.949Z,10.60
2018-12-13T02:28:11.189Z,8.63
2018-12-13T02:30:38.208Z,8.50
2018-12-13T02:33:04.489Z,6.90
2018-12-13T02:35:31.257Z,7.07
2018-12-13T02:37:57.390Z,8.83
2018-12-13T02:40:23.741Z,9.50
2018-12-13T02:42:51.389Z,7.23
2018-12-13T02:45:18.566Z,7.87
2018-12-13T02:47:45.826Z,7.73
2018-12-13T02:50:12.122Z,8.23
2018-12-13T02:52:39.109Z,8.57
2018-12-13T02:55:06.102Z,8.07
2018-12-13T02:57:32.366Z,8.20
2018-12-13T02:59:59.343Z,7.73
2018-12-13T03:02:25.607Z,9.50
2018-12-13T03:04:52.588Z,7.60
2018-12-13T03:07:19.637Z,10.10
2018-12-13T03:09:45.945Z,6.97
2018-12-13T03:12:12.972Z,8.47
2018-12-13T03:14:39.304Z,9.40
2018-12-13T03:17:05.805Z,8.20
2018-12-13T03:19:32.132Z,8.40
2018-12-13T03:21:58.371Z,9.67
2018-12-13T03:24:25.459Z,8.90
2018-12-13T03:26:51.705Z,9.00
2018-12-13T03:29:17.974Z,9.27
2018-12-13T03:31:44.509Z,8.93
2018-12-13T03:34:10.796Z,9.07
2018-12-13T03:36:37.786Z,7.90
2018-12-13T03:39:04.406Z,10.30
2018-12-13T03:41:30.699Z,8.03
2018-12-13T03:43:57.678Z,7.80
2018-12-13T03:46:24.049Z,11.77
2018-12-13T03:48:50.354Z,8.30
2018-12-13T03:51:16.947Z,10.87
2018-12-13T03:53:43.929Z,10.13
2018-12-13T03:56:10.181Z,12.30
2018-12-13T03:58:36.456Z,11.20
2018-12-13T04:01:03.461Z,9.57
2018-12-13T04:03:29.748Z,7.67
2018-12-13T04:05:56.369Z,8.37
2018-12-13T04:08:22.614Z,8.73
2018-12-13T04:10:48.896Z,8.60
2018-12-13T04:13:15.933Z,11.13
2018-12-13T04:15:42.198Z,10.13
2018-12-13T04:18:08.433Z,9.33
2018-12-13T04:20:34.680Z,9.17
2018-12-13T04:23:00.953Z,9.33
2018-12-13T04:25:27.217Z,9.43
2018-12-13T04:27:53.452Z,9.07
2018-12-13T04:30:19.751Z,10.27
2018-12-13T04:32:46.341Z,9.93
2018-12-13T04:35:12.655Z,10.20
2018-12-13T04:37:38.902Z,8.80
2018-12-13T04:40:05.223Z,9.77
2018-12-13T04:42:32.261Z,9.10
2018-12-13T04:44:58.514Z,9.60
2018-12-13T04:47:24.746Z,12.17
2018-12-13T04:49:50.981Z,9.83
2018-12-13T04:52:17.996Z,11.27
2018-12-13T04:54:44.216Z,13.87
2018-12-13T04:57:10.476Z,14.67
2018-12-13T04:59:36.681Z,14.53
2018-12-13T05:02:03.233Z,13.63
2018-12-13T05:04:29.461Z,13.10
2018-12-13T05:06:56.472Z,13.90
2018-12-13T05:09:22.705Z,12.77
2018-12-13T05:11:48.952Z,15.23
2018-12-13T05:14:15.184Z,12.23
2018-12-13T05:16:41.764Z,14.77
2018-12-13T05:19:08.744Z,13.43
2018-12-13T05:21:34.988Z,16.37
2018-12-13T05:24:01.251Z,13.43
2018-12-13T05:26:28.248Z,16.07
2018-12-13T05:28:54.539Z,16.63
2018-12-13T05:31:21.576Z,15.00
2018-12-13T05:33:48.544Z,13.77
2018-12-13T05:36:14.792Z,14.47
2018-12-13T05:38:41.009Z,13.00
2018-12-13T05:41:07.239Z,15.33
2018-12-13T05:43:33.454Z,16.93
2018-12-13T05:45:59.695Z,15.73
2018-12-13T05:48:25.920Z,14.37
2018-12-13T05:50:52.184Z,13.63
2018-12-13T05:53:18.432Z,14.63
2018-12-13T05:55:44.692Z,14.17
2018-12-13T05:58:10.926Z,13.73
2018-12-13T06:00:37.182Z,15.33
2018-12-13T06:03:04.392Z,15.00
2018-12-13T06:05:30.709Z,15.60
2018-12-13T06:07:56.953Z,16.03
2018-12-13T06:10:24.535Z,14.50
2018-12-13T06:12:50.768Z,15.03
2018-12-13T06:15:17.024Z,16.87
2018-12-13T06:17:43.284Z,14.87
2018-12-13T06:20:09.532Z,13.60
2018-12-13T06:22:35.745Z,14.50
2018-12-13T06:25:02.009Z,17.10
2018-12-13T06:27:28.264Z,14.57
2018-12-13T06:29:58.797Z,15.60
2018-12-13T06:32:21.150Z,16.63
2018-12-13T06:34:48.224Z,15.57
2018-12-13T06:37:14.456Z,16.80
2018-12-13T06:39:40.701Z,15.47
2018-12-13T06:42:06.949Z,16.03
2018-12-13T06:44:33.190Z,11.73
2018-12-13T06:46:59.463Z,14.37
2018-12-13T06:49:25.699Z,14.00
2018-12-13T06:51:51.972Z,15.30
2018-12-13T06:54:18.212Z,24.70
2018-12-13T06:56:44.427Z,15.30
2018-12-13T06:59:10.993Z,16.60
2018-12-13T07:01:37.263Z,16.77
2018-12-13T07:04:03.520Z,15.77
2018-12-13T07:06:29.767Z,16.37
2018-12-13T07:08:56.736Z,16.10
2018-12-13T07:11:22.976Z,15.83
2018-12-13T07:13:49.219Z,15.53
2018-12-13T07:16:15.447Z,15.83
2018-12-13T07:18:41.704Z,15.03
2018-12-13T07:21:07.929Z,15.67
2018-12-13T07:23:34.177Z,18.20
2018-12-13T07:26:01.165Z,14.73
2018-12-13T07:28:27.456Z,14.43
2018-12-13T07:30:53.804Z,16.40
2018-12-13T07:33:20.030Z,15.93
2018-12-13T07:35:46.301Z,16.43
2018-12-13T07:38:14.494Z,17.23
2018-12-13T07:40:39.587Z,16.10
2018-12-13T07:43:05.820Z,17.97
2018-12-13T07:45:32.092Z,16.50
2018-12-13T07:47:58.325Z,15.10
2018-12-13T07:50:24.584Z,14.63
2018-12-13T07:52:50.805Z,16.00
2018-12-13T07:55:17.068Z,17.50
2018-12-13T07:57:44.068Z,14.70
2018-12-13T08:00:10.378Z,16.70
2018-12-13T08:02:37.421Z,17.73
2018-12-13T08:05:04.972Z,19.13
2018-12-13T08:07:31.680Z,17.70
2018-12-13T08:09:58.401Z,16.13
2018-12-13T08:12:25.298Z,18.73
2018-12-13T08:14:51.764Z,17.53
2018-12-13T08:17:18.052Z,17.43
2018-12-13T08:19:44.333Z,18.03
2018-12-13T08:22:10.642Z,15.00
2018-12-13T08:24:37.000Z,18.53
2018-12-13T08:27:03.287Z,17.53
2018-12-13T08:29:29.557Z,19.83
2018-12-13T08:31:56.654Z,18.10
2018-12-13T08:34:22.952Z,17.20
2018-12-13T08:36:49.313Z,18.53
2018-12-13T08:39:15.592Z,19.27
2018-12-13T08:41:41.847Z,18.50
2018-12-13T08:44:08.891Z,18.37
2018-12-13T08:46:36.590Z,19.83
2018-12-13T08:49:03.072Z,17.40
2018-12-13T08:51:29.424Z,19.80
2018-12-13T08:53:55.716Z,17.83
2018-12-13T08:56:23.394Z,20.13
2018-12-13T08:58:49.180Z,17.47
2018-12-13T09:01:15.417Z,18.73
2018-12-13T09:03:41.820Z,18.53
2018-12-13T09:06:08.077Z,19.30
2018-12-13T09:08:34.458Z,19.20
2018-12-13T09:11:01.089Z,20.40
2018-12-13T09:13:27.355Z,25.07
2018-12-13T09:15:53.656Z,22.20
2018-12-13T09:18:19.964Z,18.13
2018-12-13T09:20:46.969Z,19.57
2018-12-13T09:23:13.253Z,19.03
2018-12-13T09:25:39.518Z,20.93
2018-12-13T09:28:05.847Z,17.97
2018-12-13T09:30:32.144Z,19.77
2018-12-13T09:32:58.446Z,19.33
2018-12-13T09:35:24.958Z,19.93
2018-12-13T09:37:51.240Z,21.07
2018-12-13T09:40:17.483Z,20.13
2018-12-13T09:42:43.774Z,21.53
2018-12-13T09:45:10.971Z,22.30
2018-12-13T09:47:37.385Z,21.30
2018-12-13T09:50:03.814Z,19.33
2018-12-13T09:52:30.092Z,19.60
2018-12-13T09:54:56.422Z,20.07
2018-12-13T09:57:22.687Z,21.53
2018-12-13T09:59:49.690Z,17.30
2018-12-13T10:02:16.036Z,20.87
2018-12-13T10:04:43.036Z,20.80
2018-12-13T10:07:09.336Z,22.10
2018-12-13T10:09:35.691Z,18.37
2018-12-13T10:12:02.090Z,21.40
2018-12-13T10:14:29.152Z,17.97
2018-12-13T10:16:55.418Z,17.50
2018-12-13T10:19:21.752Z,19.50
2018-12-13T10:21:48.044Z,21.10
2018-12-13T10:24:14.433Z,19.53
2018-12-13T10:26:40.855Z,17.57
2018-12-13T10:29:07.148Z,19.33
2018-12-13T10:31:34.360Z,17.43
2018-12-13T10:34:01.427Z,21.60
2018-12-13T10:36:27.729Z,18.60
2018-12-13T10:38:54.079Z,19.53
2018-12-13T10:41:20.334Z,19.40
2018-12-13T10:43:46.831Z,20.50
2018-12-13T10:46:13.916Z,18.17
2018-12-13T10:48:40.179Z,18.27
2018-12-13T10:51:06.559Z,18.07
2018-12-13T10:53:33.630Z,20.30
2018-12-13T10:55:59.935Z,20.07
2018-12-13T10:58:26.260Z,19.57
2018-12-13T11:00:58.583Z,18.57
2018-12-13T11:03:30.948Z,18.37
2018-12-13T11:05:57.224Z,20.07
2018-12-13T11:08:23.576Z,18.00
2018-12-13T11:10:49.946Z,18.47
2018-12-13T11:13:16.372Z,18.63
2018-12-13T11:15:42.712Z,18.20
2018-12-13T11:18:09.253Z,17.50
2018-12-13T11:20:36.428Z,17.80
2018-12-13T11:23:02.789Z,19.33
2018-12-13T11:25:29.103Z,20.73
2018-12-13T11:30:56.778Z,21.65
2018-12-13T11:33:23.179Z,19.37
2018-12-13T11:35:49.596Z,19.47
2018-12-13T11:38:16.652Z,20.83
2018-12-13T11:40:42.908Z,17.47
2018-12-13T11:43:10.850Z,20.07
2018-12-13T11:45:37.564Z,19.43
2018-12-13T11:48:03.876Z,20.57
2018-12-13T11:50:30.168Z,21.27
2018-12-13T11:52:56.809Z,23.70
2018-12-13T11:55:31.285Z,19.97
2018-12-13T11:57:58.329Z,20.73
2018-12-13T12:00:24.662Z,20.07
2018-12-13T12:02:51.990Z,20.40
2018-12-13T12:05:18.326Z,21.27
2018-12-13T12:07:44.672Z,20.17
2018-12-13T12:10:11.749Z,20.80
2018-12-13T12:12:38.849Z,19.20
2018-12-13T12:15:05.159Z,20.80
2018-12-13T12:17:31.545Z,19.93
2018-12-13T12:19:58.692Z,22.00
2018-12-13T12:22:25.708Z,22.80
2018-12-13T12:24:52.074Z,23.33
2018-12-13T12:27:18.397Z,23.07
2018-12-13T12:29:45.412Z,22.60
2018-12-13T12:32:11.727Z,22.43
2018-12-13T12:34:38.004Z,21.10
2018-12-13T12:37:04.306Z,21.30
2018-12-13T12:39:30.604Z,20.57
2018-12-13T12:41:56.884Z,21.07
2018-12-13T12:44:23.935Z,22.03
2018-12-13T12:46:51.269Z,21.07
2018-12-13T12:49:17.607Z,19.60
2018-12-13T12:51:43.902Z,19.63
2018-12-13T12:54:10.160Z,19.00
2018-12-13T12:56:37.180Z,22.77
2018-12-13T12:59:03.534Z,20.43
2018-12-13T13:01:29.828Z,24.53
2018-12-13T13:03:56.197Z,21.47
2018-12-13T13:06:23.200Z,20.77
2018-12-13T13:08:49.809Z,22.03
2018-12-13T13:11:16.209Z,20.87
2018-12-13T13:13:43.229Z,21.93
2018-12-13T13:16:10.304Z,24.40
2018-12-13T13:18:39.159Z,22.47
2018-12-13T13:21:03.107Z,21.87
2018-12-13T13:26:12.268Z,21.83
2018-12-13T13:28:38.620Z,21.73
2018-12-13T13:31:05.007Z,20.43
2018-12-13T13:33:31.429Z,21.63
2018-12-13T13:35:58.448Z,21.90
2018-12-13T13:38:24.976Z,20.10
2018-12-13T13:40:51.491Z,21.77
2018-12-13T13:43:17.824Z,21.13
2018-12-13T13:45:44.201Z,22.33
2018-12-13T13:48:11.512Z,20.03
2018-12-13T13:50:37.772Z,21.20
2018-12-13T13:53:04.092Z,21.07
2018-12-13T13:55:30.863Z,20.77
2018-12-13T13:57:57.124Z,23.80
2018-12-13T14:00:23.648Z,20.50
2018-12-13T14:02:50.989Z,22.17
2018-12-13T14:05:17.357Z,19.70
2018-12-13T14:07:43.708Z,21.50
2018-12-13T14:10:10.031Z,23.03
2018-12-13T14:12:36.412Z,20.87
2018-12-13T14:15:02.733Z,20.63
2018-12-13T14:17:29.060Z,21.03
2018-12-13T14:19:55.375Z,21.93
2018-12-13T14:22:21.735Z,20.23
2018-12-13T14:24:48.068Z,20.93
2018-12-13T14:27:15.185Z,20.07
2018-12-13T14:29:41.619Z,20.77
2018-12-13T14:32:08.672Z,22.50
2018-12-13T14:34:34.930Z,20.83
2018-12-13T14:37:01.396Z,21.13
2018-12-13T14:39:27.802Z,19.20
2018-12-13T14:41:54.214Z,21.87
2018-12-13T14:44:20.552Z,18.97
2018-12-13T14:46:47.176Z,22.90
2018-12-13T14:49:13.533Z,21.37
2018-12-13T14:51:39.819Z,17.43
2018-12-13T14:54:06.231Z,18.90
2018-12-13T14:56:33.265Z,19.63
2018-12-13T14:58:59.749Z,20.30
2018-12-13T15:01:26.235Z,19.20
2018-12-13T15:03:52.693Z,24.67
2018-12-13T15:06:19.721Z,20.17
2018-12-13T15:08:46.731Z,20.53
2018-12-13T15:11:13.015Z,19.57
2018-12-13T15:13:39.352Z,20.37
2018-12-13T15:16:05.664Z,17.77
2018-12-13T15:18:32.251Z,22.10
2018-12-13T15:20:58.576Z,19.13
2018-12-13T15:23:25.680Z,17.87
2018-12-13T15:25:52.703Z,19.07
2018-12-13T15:28:18.971Z,21.73
2018-12-13T15:30:45.342Z,20.90
2018-12-13T15:33:11.626Z,21.03
2018-12-13T15:35:38.638Z,19.27
2018-12-13T15:38:04.933Z,19.07
2018-12-13T15:40:31.288Z,20.80
2018-12-13T15:42:57.606Z,20.60
2018-12-13T15:45:23.930Z,20.33
2018-12-13T15:47:50.947Z,18.63
2018-12-13T15:50:17.237Z,20.10
2018-12-13T15:52:43.528Z,20.43
2018-12-13T15:55:09.905Z,21.23
2018-12-13T15:57:36.134Z,17.37
2018-12-13T16:00:02.417Z,19.00
2018-12-13T16:02:28.688Z,18.40
2018-12-13T16:04:54.979Z,15.90
2018-12-13T16:07:21.272Z,20.20
2018-12-13T16:09:47.548Z,17.50
2018-12-13T16:12:13.841Z,17.70
2018-12-13T16:14:40.136Z,21.17
2018-12-13T16:17:07.181Z,17.30
2018-12-13T16:19:33.444Z,17.37
2018-12-13T16:21:59.749Z,19.80
2018-12-13T16:24:27.050Z,19.20
2018-12-13T16:26:53.365Z,19.67
2018-12-13T16:29:19.640Z,16.17
2018-12-13T16:31:46.810Z,19.00
2018-12-13T16:34:13.126Z,18.27
2018-12-13T16:36:39.431Z,17.77
2018-12-13T16:39:05.787Z,17.00
2018-12-13T16:41:32.057Z,15.87
2018-12-13T16:43:58.348Z,18.50
2018-12-13T16:46:25.398Z,18.10
2018-12-13T16:48:51.776Z,16.07
2018-12-13T16:51:18.076Z,16.40
2018-12-13T16:53:44.396Z,20.73
2018-12-13T16:56:11.613Z,16.20
2018-12-13T16:58:37.970Z,19.27
2018-12-13T17:01:04.274Z,16.17
2018-12-13T17:03:39.342Z,18.60
2018-12-13T17:06:05.693Z,19.60
2018-12-13T17:08:31.992Z,19.63
2018-12-13T17:10:58.357Z,18.13
2018-12-13T17:13:24.651Z,16.80
2018-12-13T17:15:51.671Z,18.53
2018-12-13T17:18:18.033Z,16.60
2018-12-13T17:20:44.372Z,15.10
2018-12-13T17:23:10.645Z,15.43
2018-12-13T17:25:36.904Z,16.93
2018-12-13T17:28:03.243Z,15.27
2018-12-13T17:30:30.312Z,14.07
2018-12-13T17:32:56.673Z,18.47
2018-12-13T17:35:22.987Z,16.17
2018-12-13T17:37:49.310Z,16.37
2018-12-13T17:40:15.648Z,16.93
2018-12-13T17:42:41.960Z,17.27
2018-12-13T17:45:09.050Z,15.27
2018-12-13T17:47:36.053Z,16.80
2018-12-13T17:50:02.372Z,17.00
2018-12-13T17:52:28.689Z,16.97
2018-12-13T17:54:55.745Z,17.27
2018-12-13T17:57:22.722Z,14.07
2018-12-13T17:59:49.034Z,14.93
2018-12-13T18:02:15.347Z,15.63
2018-12-13T18:04:41.623Z,15.97
2018-12-13T18:07:08.692Z,14.87
2018-12-13T18:09:34.969Z,15.77
2018-12-13T18:12:01.293Z,14.70
2018-12-13T18:14:27.528Z,16.27
2018-12-13T18:16:54.695Z,17.37
2018-12-13T18:19:21.012Z,15.53
2018-12-13T18:21:47.341Z,15.50
2018-12-13T18:24:13.638Z,17.00
2018-12-13T18:26:41.536Z,14.67
2018-12-13T18:29:07.836Z,17.33
2018-12-13T18:31:34.211Z,16.00
2018-12-13T18:34:00.521Z,16.63
2018-12-13T18:36:26.949Z,15.23
2018-12-13T18:38:53.335Z,16.50
2018-12-13T18:41:20.447Z,14.93
2018-12-13T18:43:46.827Z,16.30
2018-12-13T18:46:13.123Z,16.27
2018-12-13T18:48:39.396Z,18.97
2018-12-13T18:51:06.424Z,16.47
2018-12-13T18:53:32.764Z,17.57
2018-12-13T18:55:59.099Z,16.27
2018-12-13T18:58:25.365Z,17.10
2018-12-13T19:00:51.684Z,14.50
2018-12-13T19:03:17.993Z,16.30
2018-12-13T19:05:44.293Z,15.53
2018-12-13T19:08:10.653Z,15.50
2018-12-13T19:10:41.879Z,16.37
2018-12-13T19:13:03.375Z,15.63
2018-12-13T19:15:29.654Z,14.43
2018-12-13T19:17:56.052Z,14.97
2018-12-13T19:20:23.104Z,15.10
2018-12-13T19:22:50.193Z,15.50
2018-12-13T19:25:16.585Z,16.23
2018-12-13T19:27:43.598Z,14.27
2018-12-13T19:30:09.914Z,16.13
2018-12-13T19:32:36.981Z,17.23
2018-12-13T19:35:03.342Z,14.50
2018-12-13T19:37:30.376Z,15.47
2018-12-13T19:39:58.433Z,16.87
2018-12-13T19:42:24.775Z,16.63
2018-12-13T19:44:51.096Z,16.03
2018-12-13T19:47:18.494Z,16.40
2018-12-13T19:49:44.800Z,17.43
2018-12-13T19:52:11.134Z,13.57
2018-12-13T19:54:37.460Z,16.63
2018-12-13T19:57:04.501Z,15.57
2018-12-13T19:59:31.601Z,16.33
2018-12-13T20:01:58.700Z,17.37
2018-12-13T20:04:25.012Z,15.63
2018-12-13T20:06:51.348Z,16.50
2018-12-13T20:09:17.681Z,18.07
2018-12-13T20:11:44.020Z,17.67
2018-12-13T20:14:11.173Z,15.53
2018-12-13T20:16:37.796Z,16.30
2018-12-13T20:19:04.859Z,16.87
2018-12-13T20:21:31.157Z,17.23
2018-12-13T20:23:57.543Z,15.57
2018-12-13T20:26:23.980Z,16.87
2018-12-13T20:28:50.571Z,16.57
2018-12-13T20:31:17.695Z,14.20
2018-12-13T20:33:45.037Z,16.80
2018-12-13T20:36:11.646Z,17.43
2018-12-13T20:38:37.968Z,18.40
2018-12-13T20:41:04.345Z,16.27
2018-12-13T20:43:30.761Z,17.00
2018-12-13T20:45:57.054Z,16.23
2018-12-13T20:48:23.500Z,16.27
2018-12-13T20:50:49.896Z,16.97
2018-12-13T20:53:16.942Z,15.00
2018-12-13T20:55:44.115Z,17.80
2018-12-13T20:58:11.413Z,17.10
2018-12-13T21:00:37.788Z,18.03
2018-12-13T21:03:04.069Z,17.73
2018-12-13T21:05:30.414Z,18.27
2018-12-13T21:08:03.450Z,18.83
2018-12-13T21:10:29.847Z,17.37
2018-12-13T21:12:56.292Z,17.77
2018-12-13T21:15:23.361Z,16.83
2018-12-13T21:17:49.693Z,19.53
2018-12-13T21:20:16.034Z,18.87
2018-12-13T21:22:42.353Z,19.33
2018-12-13T21:25:08.637Z,17.70
2018-12-13T21:27:35.813Z,17.53
2018-12-13T21:30:02.203Z,19.17
2018-12-13T21:32:28.513Z,19.27
2018-12-13T21:34:54.827Z,17.17
2018-12-13T21:37:21.376Z,20.13
2018-12-13T21:39:47.767Z,19.00
2018-12-13T21:42:14.077Z,19.83
2018-12-13T21:44:41.272Z,16.53
2018-12-13T21:47:07.637Z,18.13
2018-12-13T21:49:34.042Z,17.07
2018-12-13T21:52:00.364Z,16.37
2018-12-13T21:54:26.599Z,17.87
2018-12-13T21:56:52.908Z,19.67
2018-12-13T21:59:19.151Z,18.90
2018-12-13T22:01:45.411Z,19.37
2018-12-13T22:04:11.701Z,19.23
2018-12-13T22:06:37.958Z,19.20
2018-12-13T22:09:04.934Z,16.70
2018-12-13T22:11:31.887Z,16.17
2018-12-13T22:13:58.872Z,19.03
2018-12-13T22:16:25.166Z,18.50
2018-12-13T22:18:52.177Z,17.53
2018-12-13T22:21:20.197Z,17.97
2018-12-13T22:23:47.453Z,16.90
2018-12-13T22:26:13.728Z,18.17
2018-12-13T22:28:40.075Z,20.37
2018-12-13T22:31:06.364Z,18.43
2018-12-13T22:33:32.706Z,17.63
2018-12-13T22:35:59.210Z,19.73
2018-12-13T22:38:25.841Z,18.83
2018-12-13T22:40:52.169Z,16.43
2018-12-13T22:43:20.706Z,17.30
2018-12-13T22:45:44.824Z,19.33
2018-12-13T22:48:11.100Z,17.10
2018-12-13T22:50:38.346Z,18.40
2018-12-13T22:53:04.650Z,19.50
2018-12-13T22:55:31.008Z,18.33
2018-12-13T22:57:57.287Z,19.13
2018-12-13T23:00:23.721Z,16.77
2018-12-13T23:02:50.046Z,19.17
2018-12-13T23:05:16.318Z,17.20
2018-12-13T23:07:42.566Z,20.27
2018-12-13T23:10:08.874Z,15.80
2018-12-13T23:12:35.161Z,18.97
2018-12-13T23:15:01.585Z,20.97
2018-12-13T23:17:27.882Z,18.67
2018-12-13T23:19:54.181Z,18.90
2018-12-13T23:22:20.453Z,21.30
2018-12-13T23:24:46.703Z,18.37
2018-12-13T23:27:12.991Z,21.83
2018-12-13T23:29:40.002Z,19.90
2018-12-13T23:32:06.300Z,19.40
2018-12-13T23:34:32.544Z,20.37
2018-12-13T23:36:58.766Z,19.50
2018-12-13T23:39:25.288Z,17.93
2018-12-13T23:41:52.257Z,16.70
2018-12-13T23:44:18.520Z,18.80
2018-12-13T23:46:44.806Z,19.73
2018-12-13T23:49:11.052Z,17.53
2018-12-13T23:51:37.303Z,18.87
2018-12-13T23:54:03.554Z,19.37
2018-12-13T23:56:30.576Z,19.57
2018-12-13T23:58:56.970Z,18.63
